Time;durP1;ratioP1;P1;durP2;ratioP2;P2;SDS_P1;SDS_P2;PMS_P1;PMS_P2;Temp;Humidity;BMP_temperature;BMP_pressure;BME280_temperature;BME280_humidity;BME280_pressure;Samples;Min_cycle;Max_cycle;Signal;HPM_P1;HPM_P2
2023/01/18 00:00:17;;;;;;;8.57;4.80;;;;;;;2.35;73.92;97285.78;5031031;28;20054;-79
2023/01/18 00:02:45;;;;;;;7.78;5.05;;;;;;;2.38;73.91;97289.94;5030648;28;20104;-79
2023/01/18 00:05:12;;;;;;;9.80;5.20;;;;;;;2.40;73.73;97286.34;5030880;28;20141;-79
2023/01/18 00:07:39;;;;;;;10.13;4.95;;;;;;;2.42;73.91;97279.28;5030774;28;20080;-79
2023/01/18 00:10:06;;;;;;;9.90;6.20;;;;;;;2.45;73.73;97292.06;5030818;28;20049;-79
2023/01/18 00:12:32;;;;;;;9.20;5.45;;;;;;;2.47;73.55;97291.97;5013058;28;20053;-79
2023/01/18 00:14:59;;;;;;;12.02;6.43;;;;;;;2.44;72.58;97282.59;5030846;28;20050;-79
2023/01/18 00:17:25;;;;;;;14.18;7.57;;;;;;;2.42;71.88;97289.66;5030833;28;20096;-79
2023/01/18 00:19:52;;;;;;;12.63;7.35;;;;;;;2.37;72.33;97283.94;5030924;28;20461;-79
2023/01/18 00:22:18;;;;;;;15.40;7.15;;;;;;;2.31;72.18;97282.56;5030542;28;20064;-78
2023/01/18 00:24:45;;;;;;;10.40;7.22;;;;;;;2.25;72.38;97285.56;5030575;28;20080;-79
2023/01/18 00:27:11;;;;;;;14.55;7.78;;;;;;;2.18;72.07;97294.66;5030299;28;20057;-79
2023/01/18 00:29:38;;;;;;;14.95;7.93;;;;;;;2.11;71.28;97291.59;5013175;28;20057;-79
2023/01/18 00:32:04;;;;;;;16.00;8.55;;;;;;;2.04;71.78;97290.31;5030375;28;20053;-79
2023/01/18 00:34:31;;;;;;;15.98;8.90;;;;;;;1.95;72.00;97297.72;5030603;28;20065;-79
2023/01/18 00:36:58;;;;;;;14.43;8.45;;;;;;;1.89;72.04;97295.53;5030206;28;20075;-78
2023/01/18 00:39:24;;;;;;;13.93;8.73;;;;;;;1.81;72.17;97289.97;5024750;28;20418;-79
2023/01/18 00:44:36;;;;;;;16.52;8.88;;;;;;;1.67;72.67;97294.25;5030054;28;20508;-79
2023/01/18 00:47:02;;;;;;;12.90;8.32;;;;;;;1.62;72.96;97301.47;5030074;28;20052;-79
2023/01/18 00:49:29;;;;;;;13.95;8.52;;;;;;;1.55;72.89;97302.75;5030212;28;20049;-79
2023/01/18 00:51:55;;;;;;;15.98;8.57;;;;;;;1.52;72.22;97308.09;5029926;28;20478;-79
2023/01/18 00:54:24;;;;;;;14.35;8.85;;;;;;;1.49;72.93;97310.91;5030143;28;20057;-80
2023/01/18 00:56:50;;;;;;;14.88;8.00;;;;;;;1.45;72.74;97306.81;5027303;28;20065;-79
2023/01/18 00:59:17;;;;;;;14.73;8.40;;;;;;;1.39;72.99;97301.06;5030229;28;20119;-78
2023/01/18 01:01:44;;;;;;;16.10;9.25;;;;;;;1.36;72.82;97311.63;5071532;22;20028;-79
2023/01/18 01:06:55;;;;;;;14.88;8.95;;;;;;;1.30;73.70;97315.41;5026088;28;20513;-80
2023/01/18 01:09:28;;;;;;;13.38;9.60;;;;;;;1.27;72.67;97315.59;5025545;28;20056;-79
2023/01/18 01:26:02;;;;;;;17.35;10.60;;;;;;;1.15;74.08;97316.28;5033803;28;20449;-80
2023/01/18 01:28:28;;;;;;;20.38;10.73;;;;;;;1.13;73.80;97326.75;5016361;28;20053;-79
2023/01/18 01:31:00;;;;;;;18.92;12.10;;;;;;;1.12;73.70;97329.44;5034019;28;20092;-79
2023/01/18 01:33:28;;;;;;;19.33;11.63;;;;;;;1.10;73.70;97326.94;5033852;28;20053;-79
2023/01/18 01:36:07;;;;;;;19.98;12.25;;;;;;;1.07;72.85;97332.28;5015940;28;20061;-80
2023/01/18 01:38:33;;;;;;;22.42;13.05;;;;;;;1.08;74.07;97331.34;5033734;28;20055;-80
2023/01/18 01:41:04;;;;;;;21.52;13.45;;;;;;;1.06;73.94;97327.19;5033649;28;20480;-79
2023/01/18 01:43:38;;;;;;;28.90;14.18;;;;;;;1.03;73.94;97330.78;5033664;28;20067;-80
2023/01/18 01:46:18;;;;;;;22.83;13.20;;;;;;;1.02;73.34;97337.72;5033246;28;20414;-79
2023/01/18 01:48:46;;;;;;;19.20;12.07;;;;;;;1.03;74.20;97336.81;5033181;28;20054;-79
2023/01/18 01:51:17;;;;;;;20.45;13.35;;;;;;;1.03;74.39;97333.38;5033633;28;20490;-79
2023/01/18 01:53:47;;;;;;;24.75;13.38;;;;;;;1.03;74.39;97328.19;5033639;28;20089;-79
2023/01/18 01:56:14;;;;;;;24.95;14.68;;;;;;;1.03;74.40;97333.38;5015701;28;20140;-79
2023/01/18 01:58:42;;;;;;;24.65;13.85;;;;;;;1.02;74.79;97329.94;5033324;28;20058;-79
2023/01/18 02:01:08;;;;;;;22.75;13.55;;;;;;;1.04;75.13;97332.47;5033176;28;20581;-79
2023/01/18 02:03:39;;;;;;;22.50;13.35;;;;;;;1.04;74.26;97335.03;5033569;28;20069;-79
2023/01/18 02:06:32;;;;;;;21.23;11.65;;;;;;;1.03;73.95;97330.78;5033066;28;20053;-79
2023/01/18 02:08:59;;;;;;;;;;;;;;;1.09;73.64;97317.50;5033581;28;20104;-80
2023/01/18 02:11:26;;;;;;;17.67;9.52;;;;;;;1.16;75.35;97316.22;5032948;28;19924;-80
2023/01/18 02:13:55;;;;;;;16.92;10.13;;;;;;;1.20;75.94;97316.88;5033150;28;20497;-79
2023/01/18 02:16:24;;;;;;;14.80;10.23;;;;;;;1.24;75.54;97313.16;5033256;28;20060;-79
2023/01/18 02:19:07;;;;;;;20.30;10.55;;;;;;;1.26;73.64;97326.88;5015168;28;20571;-79
2023/01/18 02:21:46;;;;;;;;;;;;;;;1.35;72.24;97330.66;5033746;28;20072;-80
2023/01/18 02:24:29;;;;;;;18.77;8.70;;;;;;;1.39;73.08;97326.97;5032647;28;20002;-79
2023/01/18 02:27:10;;;;;;;16.58;9.55;;;;;;;1.45;73.58;97328.38;5032305;28;20081;-79
2023/01/18 02:29:39;;;;;;;16.15;9.90;;;;;;;1.50;74.27;97322.94;5014696;28;20560;-79
2023/01/18 02:32:15;;;;;;;16.98;10.05;;;;;;;1.52;74.00;97327.09;5032647;28;20497;-79
2023/01/18 02:34:54;;;;;;;19.67;11.38;;;;;;;1.55;73.26;97331.28;5032518;28;20092;-80
2023/01/18 02:37:38;;;;;;;18.88;11.68;;;;;;;1.57;73.31;97332.00;5015063;28;20057;-80
2023/01/18 02:40:31;;;;;;;18.05;12.23;;;;;;;1.57;72.34;97332.00;5032641;28;20053;-79
2023/01/18 02:48:37;;;;;;;21.17;13.40;;;;;;;1.49;72.96;97344.59;5032278;28;20557;-80
2023/01/18 02:51:04;;;;;;;26.38;13.63;;;;;;;1.43;73.01;97344.03;5014584;28;20058;-79
2023/01/18 02:53:36;;;;;;;25.40;14.25;;;;;;;1.37;72.78;97343.56;5014696;28;20144;-79
2023/01/18 02:56:12;;;;;;;23.85;14.13;;;;;;;1.30;72.82;97337.88;5032233;28;20058;-79
2023/01/18 02:58:46;;;;;;;23.10;14.10;;;;;;;1.24;72.74;97343.44;5032167;28;20100;-79
2023/01/18 03:01:25;;;;;;;22.88;13.32;;;;;;;1.19;72.92;97351.47;5014465;28;20080;-80
2023/01/18 03:03:58;;;;;;;24.08;13.65;;;;;;;1.16;73.76;97347.31;5031851;28;20045;-80
2023/01/18 03:06:28;;;;;;;23.07;13.90;;;;;;;1.13;73.71;97347.47;5032057;28;20049;-80
2023/01/18 03:08:57;;;;;;;27.23;13.77;;;;;;;1.13;74.13;97357.03;5032012;28;20050;-79
2023/01/18 03:11:27;;;;;;;23.05;15.23;;;;;;;1.10;73.44;97344.22;5031847;28;20436;-80
2023/01/18 03:14:31;;;;;;;22.48;13.82;;;;;;;1.06;73.02;97340.16;5014507;28;20136;-80
2023/01/18 03:17:05;;;;;;;26.48;14.63;;;;;;;1.08;73.32;97353.88;4970187;28;20066;-79
2023/01/18 03:25:32;;;;;;;27.65;14.88;;;;;;;1.01;73.07;97366.34;5031599;28;20049;-80
2023/01/18 03:33:45;;;;;;;27.85;15.52;;;;;;;0.91;74.25;97369.41;5031496;28;20641;-80
2023/01/18 03:36:26;;;;;;;28.42;15.75;;;;;;;0.86;73.33;97366.25;5013677;28;20045;-79
2023/01/18 03:39:01;;;;;;;26.55;15.32;;;;;;;0.84;73.11;97377.63;5013752;28;20093;-80
2023/01/18 03:41:32;;;;;;;26.52;16.08;;;;;;;0.84;74.13;97375.03;5014052;28;20065;-80
2023/01/18 03:44:05;;;;;;;25.75;16.27;;;;;;;0.81;74.14;97373.44;5031583;28;20127;-80
2023/01/18 03:46:32;;;;;;;28.88;17.30;;;;;;;0.81;75.00;97373.44;5031055;28;20060;-80
2023/01/18 03:48:59;;;;;;;27.00;16.58;;;;;;;0.80;74.74;97387.31;5031432;28;20220;-80
2023/01/18 03:51:46;;;;;;;27.52;16.35;;;;;;;0.75;73.30;97379.00;5031000;28;20123;-80
2023/01/18 03:54:25;;;;;;;35.10;18.55;;;;;;;0.77;74.58;97384.91;5031088;28;20057;-80
2023/01/18 03:56:59;;;;;;;27.33;16.63;;;;;;;0.77;74.15;97377.13;5013435;28;20127;-80
2023/01/18 03:59:32;;;;;;;24.80;15.57;;;;;;;0.77;74.08;97377.13;5031104;28;20068;-79
2023/01/18 04:02:01;;;;;;;28.35;16.95;;;;;;;0.78;75.08;97382.22;5030929;28;20100;-80
2023/01/18 04:04:27;;;;;;;27.33;16.38;;;;;;;0.80;75.16;97382.16;5013718;28;20053;-80
2023/01/18 04:06:54;;;;;;;30.08;16.67;;;;;;;0.81;75.00;97386.41;5030720;28;20053;-80
2023/01/18 04:09:20;;;;;;;29.98;17.23;;;;;;;0.81;74.84;97383.81;5031049;28;20097;-80
2023/01/18 04:11:47;;;;;;;24.42;15.57;;;;;;;0.83;75.09;97392.34;5030840;28;20060;-81
2023/01/18 04:14:13;;;;;;;29.52;17.15;;;;;;;0.83;74.79;97396.69;5030782;28;20053;-80
2023/01/18 04:16:40;;;;;;;34.38;19.35;;;;;;;0.83;75.05;97399.28;5030418;28;20132;-80
2023/01/18 04:19:07;;;;;;;29.08;17.73;;;;;;;0.83;74.97;97397.53;5030810;28;20061;-81
2023/01/18 04:21:34;;;;;;;33.38;19.88;;;;;;;0.84;74.87;97396.59;5030684;28;20057;-80
2023/01/18 04:24:00;;;;;;;32.08;17.65;;;;;;;0.85;75.48;97400.84;5030720;28;20053;-82
2023/01/18 04:26:28;;;;;;;29.67;18.00;;;;;;;0.87;75.00;97406.78;5030418;28;20049;-80
2023/01/18 04:28:55;;;;;;;29.20;18.10;;;;;;;0.87;74.88;97403.38;5030420;28;20111;-81
2023/01/18 04:31:21;;;;;;;32.72;18.00;;;;;;;0.88;74.77;97397.25;5030476;28;20140;-81
2023/01/18 04:33:50;;;;;;;29.42;16.42;;;;;;;0.89;74.67;97404.09;5030655;28;20104;-81
2023/01/18 04:36:19;;;;;;;29.80;17.55;;;;;;;0.90;75.37;97406.59;5030566;28;20058;-81
2023/01/18 04:38:45;;;;;;;29.05;16.58;;;;;;;0.93;75.23;97409.97;5030384;28;20057;-81
2023/01/18 04:41:12;;;;;;;27.23;17.08;;;;;;;0.94;74.60;97414.22;5030444;28;20132;-81
2023/01/18 04:43:38;;;;;;;28.75;17.38;;;;;;;0.95;74.72;97411.53;5030399;28;20065;-81
2023/01/18 04:46:04;;;;;;;27.67;17.10;;;;;;;0.97;74.70;97416.66;5030309;28;20049;-80
2023/01/18 04:48:31;;;;;;;28.50;17.08;;;;;;;0.98;74.76;97418.31;5031623;28;20123;-80
2023/01/18 04:50:57;;;;;;;30.88;15.70;;;;;;;0.99;75.06;97415.63;5034769;28;20057;-80
2023/01/18 04:53:24;;;;;;;26.30;16.95;;;;;;;1.01;74.62;97415.56;5016725;28;20057;-80
2023/01/18 04:55:51;;;;;;;31.85;16.85;;;;;;;1.02;74.10;97419.81;5034406;28;20057;-80
2023/01/18 04:58:17;;;;;;;24.92;16.33;;;;;;;1.02;74.79;97418.03;5034236;28;20049;-80
2023/01/18 05:00:44;;;;;;;28.92;17.60;;;;;;;1.02;74.15;97420.63;5034601;28;20056;-79
2023/01/18 05:03:11;;;;;;;27.63;16.23;;;;;;;1.04;74.64;97410.19;5034317;28;20058;-80
2023/01/18 05:05:38;;;;;;;26.98;16.90;;;;;;;1.03;74.66;97424.06;5016684;28;20111;-80
2023/01/18 05:08:05;;;;;;;25.42;15.63;;;;;;;1.06;74.94;97425.63;5034220;28;20061;-81
2023/01/18 05:10:32;;;;;;;27.35;16.77;;;;;;;1.07;75.02;97428.16;5034144;28;20548;-80
2023/01/18 05:12:59;;;;;;;26.20;15.95;;;;;;;1.10;74.73;97427.13;5016559;28;20602;-81
2023/01/18 05:15:26;;;;;;;26.42;15.80;;;;;;;1.13;75.00;97432.97;5034094;28;20053;-81
2023/01/18 05:17:52;;;;;;;22.55;12.95;;;;;;;1.15;75.16;97438.94;5034138;28;20054;-81
2023/01/18 05:20:19;;;;;;;24.02;15.82;;;;;;;1.17;74.86;97434.47;5034056;28;20063;-80
2023/01/18 05:22:45;;;;;;;23.30;14.80;;;;;;;1.20;74.96;97432.66;5016338;28;20064;-80
2023/01/18 05:25:12;;;;;;;25.67;14.43;;;;;;;1.21;74.74;97432.56;5033517;28;20092;-81
2023/01/18 05:27:38;;;;;;;21.50;13.75;;;;;;;1.22;74.76;97442.00;5033731;28;20053;-80
2023/01/18 05:30:06;;;;;;;21.45;13.85;;;;;;;1.24;75.10;97437.56;5033678;28;20513;-79
2023/01/18 05:32:32;;;;;;;23.30;13.88;;;;;;;1.27;74.88;97437.38;5016390;28;20391;-80
2023/01/18 05:34:59;;;;;;;25.70;14.40;;;;;;;1.29;74.97;97445.09;5033645;28;20049;-80
2023/01/18 05:37:25;;;;;;;25.05;14.32;;;;;;;1.31;74.74;97445.84;5033582;28;20057;-79
2023/01/18 05:39:52;;;;;;;25.17;15.55;;;;;;;1.35;74.26;97446.50;5033511;28;20061;-79
2023/01/18 05:42:18;;;;;;;23.27;14.90;;;;;;;1.36;74.24;97448.16;5032340;28;20144;-80
2023/01/18 05:44:45;;;;;;;25.33;15.98;;;;;;;1.37;74.02;97445.50;5024448;28;20085;-80
2023/01/18 05:47:11;;;;;;;26.63;15.43;;;;;;;1.36;74.24;97449.00;5015672;28;20613;-80
2023/01/18 05:49:38;;;;;;;26.50;16.30;;;;;;;1.37;74.29;97452.41;5016057;28;20061;-80
2023/01/18 05:52:07;;;;;;;29.08;16.52;;;;;;;1.36;73.63;97456.78;5016221;28;20060;-79
2023/01/18 05:54:34;;;;;;;27.10;16.90;;;;;;;1.35;74.19;97454.28;5033345;28;20065;-79
2023/01/18 05:57:00;;;;;;;25.05;16.48;;;;;;;1.34;73.94;97455.22;5015614;28;20057;-79
2023/01/18 05:59:26;;;;;;;32.88;17.95;;;;;;;1.32;73.94;97455.28;5033271;28;20061;-79
2023/01/18 06:01:53;;;;;;;25.95;16.63;;;;;;;1.31;73.89;97466.59;5033205;28;20140;-79
2023/01/18 06:04:20;;;;;;;26.63;15.63;;;;;;;1.30;73.94;97468.31;5033480;28;20120;-80
2023/01/18 06:06:47;;;;;;;23.95;15.35;;;;;;;1.29;73.78;97469.25;5032777;28;20057;-80
2023/01/18 06:09:13;;;;;;;23.10;15.35;;;;;;;1.26;73.95;97469.41;5029987;28;20053;-79
2023/01/18 06:11:40;;;;;;;20.70;14.45;;;;;;;1.25;74.04;97480.72;5032258;28;20054;-79
2023/01/18 06:14:07;;;;;;;23.40;13.73;;;;;;;1.25;74.26;97485.91;5032930;28;20462;-80
2023/01/18 06:16:34;;;;;;;20.00;12.95;;;;;;;1.27;74.63;97475.44;5032597;28;20103;-80
2023/01/18 06:19:00;;;;;;;22.17;13.45;;;;;;;1.28;74.76;97479.72;5011705;28;20065;-79
2023/01/18 06:21:27;;;;;;;21.20;13.60;;;;;;;1.31;75.04;97484.72;5023266;28;20057;-80
2023/01/18 06:23:53;;;;;;;22.27;14.10;;;;;;;1.34;74.57;97481.13;5031821;28;20053;-80
2023/01/18 06:26:20;;;;;;;25.60;15.45;;;;;;;1.36;73.76;97497.41;5032733;28;20413;-79
2023/01/18 06:28:46;;;;;;;32.45;17.90;;;;;;;1.35;73.92;97496.56;5014901;28;20833;-79
2023/01/18 06:31:13;;;;;;;31.13;17.52;;;;;;;1.34;73.19;97494.09;5029348;28;20057;-80
2023/01/18 06:33:40;;;;;;;34.13;18.67;;;;;;;1.30;73.20;97501.19;5032338;28;20072;-80
2023/01/18 06:36:07;;;;;;;28.85;19.45;;;;;;;1.26;72.78;97492.75;5030757;28;20163;-80
2023/01/18 06:38:33;;;;;;;31.80;18.33;;;;;;;1.21;72.95;97488.72;5030748;28;20517;-78
2023/01/18 06:41:00;;;;;;;30.30;18.67;;;;;;;1.15;72.88;97500.25;5031189;28;20631;-80
2023/01/18 06:43:26;;;;;;;35.33;19.55;;;;;;;1.08;72.64;97502.34;5016896;28;20060;-79
2023/01/18 06:45:54;;;;;;;27.60;18.40;;;;;;;1.00;72.54;97507.97;5032150;28;20046;-78
2023/01/18 06:48:23;;;;;;;35.92;20.33;;;;;;;0.94;72.76;97517.81;5032394;28;20061;-79
2023/01/18 06:50:51;;;;;;;33.13;19.88;;;;;;;0.86;72.81;97515.66;5032478;28;20053;-79
2023/01/18 06:53:19;;;;;;;31.63;19.23;;;;;;;0.79;72.63;97522.91;5032128;28;20502;-81
2023/01/18 06:55:58;;;;;;;33.00;19.80;;;;;;;0.71;72.54;97518.13;5014819;28;20057;-79
2023/01/18 06:58:26;;;;;;;31.77;18.83;;;;;;;0.69;73.41;97524.31;5032014;28;20053;-80
2023/01/18 07:00:55;;;;;;;31.85;19.15;;;;;;;0.65;73.97;97534.00;5032109;28;20057;-79
2023/01/18 07:03:23;;;;;;;31.92;17.95;;;;;;;0.61;73.97;97533.34;5035267;22;20061;-77
2023/01/18 07:05:51;;;;;;;27.00;17.33;;;;;;;0.59;73.79;97548.09;4994234;28;20100;-80
2023/01/18 07:08:19;;;;;;;31.15;19.02;;;;;;;0.58;74.10;97551.59;4994478;28;20112;-80
2023/01/18 07:10:51;;;;;;;35.13;20.48;;;;;;;0.54;73.64;97542.31;5011286;28;20414;-79
2023/01/18 07:13:19;;;;;;;35.22;19.73;;;;;;;0.55;73.86;97550.94;5011683;28;20096;-79
2023/01/18 07:15:52;;;;;;;29.48;18.25;;;;;;;0.48;72.96;97553.84;5011639;28;20058;-79
2023/01/18 07:18:19;;;;;;;32.05;19.08;;;;;;;0.48;73.81;97563.34;5011548;28;20054;-78
2023/01/18 07:20:46;;;;;;;32.05;19.58;;;;;;;0.45;73.63;97564.34;5011845;28;20112;-78
2023/01/18 07:23:12;;;;;;;32.90;18.67;;;;;;;0.44;73.82;97569.63;5011795;28;20106;-79
2023/01/18 07:25:39;;;;;;;33.50;18.13;;;;;;;0.41;74.14;97575.75;5011644;28;20113;-79
2023/01/18 07:28:05;;;;;;;30.67;18.45;;;;;;;0.40;74.31;97586.22;5011628;28;20058;-79
2023/01/18 07:30:32;;;;;;;31.25;18.92;;;;;;;0.38;74.23;97581.09;5011687;28;20487;-79
2023/01/18 07:32:59;;;;;;;31.38;17.75;;;;;;;0.37;74.62;97576.81;4994120;28;20100;-79
2023/01/18 07:35:26;;;;;;;31.63;18.38;;;;;;;0.37;74.38;97585.44;5011140;28;20060;-79
2023/01/18 07:37:52;;;;;;;26.65;16.27;;;;;;;0.35;74.97;97592.47;5011399;28;20422;-79
2023/01/18 07:40:20;;;;;;;33.35;18.42;;;;;;;0.35;74.16;97583.84;5011517;28;20427;-79
2023/01/18 07:42:47;;;;;;;25.92;16.02;;;;;;;0.35;74.51;97584.69;5011157;28;20058;-79
2023/01/18 07:45:14;;;;;;;32.65;18.15;;;;;;;0.33;74.64;97589.09;4993697;28;20073;-79
2023/01/18 07:47:41;;;;;;;34.65;18.80;;;;;;;0.33;74.18;97596.84;5011486;28;20093;-79
2023/01/18 07:50:09;;;;;;;26.63;16.40;;;;;;;0.30;74.39;97599.59;5011424;28;20050;-78
2023/01/18 07:52:37;;;;;;;29.20;17.40;;;;;;;0.29;74.12;97602.28;5011139;28;20060;-79
2023/01/18 07:55:04;;;;;;;29.65;18.85;;;;;;;0.27;74.48;97610.13;5010816;28;20065;-79
2023/01/18 07:57:32;;;;;;;29.55;18.35;;;;;;;0.24;74.63;97605.94;5011390;28;20050;-79
2023/01/18 07:59:58;;;;;;;29.23;18.83;;;;;;;0.24;74.63;97616.28;5010791;28;20058;-79
2023/01/18 08:02:25;;;;;;;30.92;17.85;;;;;;;0.23;74.48;97618.94;5011010;28;20131;-79
2023/01/18 08:04:51;;;;;;;32.25;18.30;;;;;;;0.20;74.62;97627.69;5011045;28;20058;-78
2023/01/18 08:07:18;;;;;;;30.90;18.33;;;;;;;0.21;74.59;97625.94;5011022;28;20109;-79
2023/01/18 08:09:45;;;;;;;29.45;17.67;;;;;;;0.20;74.49;97626.84;5010955;28;20053;-79
2023/01/18 08:12:16;;;;;;;32.30;17.73;;;;;;;0.20;74.87;97639.78;5010967;28;20052;-79
2023/01/18 08:14:44;;;;;;;31.67;18.50;;;;;;;0.20;75.05;97642.38;5010894;28;20058;-79
2023/01/18 08:17:11;;;;;;;32.63;19.25;;;;;;;0.21;74.85;97641.44;5010960;28;20054;-79
2023/01/18 08:19:37;;;;;;;31.05;18.15;;;;;;;0.20;74.74;97642.38;5011016;28;20081;-78
2023/01/18 08:22:04;;;;;;;34.42;20.17;;;;;;;0.19;74.73;97646.69;5010717;28;20064;-79
2023/01/18 08:24:30;;;;;;;32.17;19.30;;;;;;;0.18;75.17;97639.84;5009887;28;20113;-78
2023/01/18 08:26:56;;;;;;;30.65;18.77;;;;;;;0.18;75.02;97639.03;4993170;28;20058;-79
2023/01/18 08:29:23;;;;;;;26.60;17.73;;;;;;;0.17;75.07;97645.94;5010813;28;20127;-80
2023/01/18 08:31:54;;;;;;;27.90;17.40;;;;;;;0.18;74.96;97649.38;5010914;28;20104;-78
2023/01/18 08:34:20;;;;;;;33.17;18.48;;;;;;;0.19;75.53;97653.63;5010576;28;20058;-79
2023/01/18 08:36:47;;;;;;;34.70;19.85;;;;;;;0.19;75.33;97662.22;5010479;28;20056;-78
2023/01/18 08:39:13;;;;;;;28.55;17.40;;;;;;;0.21;75.40;97659.56;5010485;28;20486;-78
2023/01/18 08:41:40;;;;;;;32.08;17.55;;;;;;;0.23;75.24;97662.94;5010347;28;20084;-79
2023/01/18 08:44:07;;;;;;;26.02;16.65;;;;;;;0.24;75.26;97664.59;4993145;28;20515;-79
2023/01/18 08:46:35;;;;;;;33.70;17.73;;;;;;;0.26;75.14;97662.75;5010529;28;20387;-79
2023/01/18 08:49:04;;;;;;;27.40;17.58;;;;;;;0.28;75.67;97670.44;4993134;28;20495;-79
2023/01/18 08:51:31;;;;;;;25.40;16.02;;;;;;;0.30;75.49;97668.63;5010449;28;20058;-79
2023/01/18 08:53:58;;;;;;;29.13;15.80;;;;;;;0.33;75.50;97679.66;5010205;28;20525;-79
2023/01/18 08:56:25;;;;;;;28.90;16.48;;;;;;;0.35;75.63;97679.59;5010934;28;20057;-78
2023/01/18 08:58:52;;;;;;;29.38;16.30;;;;;;;0.37;75.22;97680.34;5010393;28;20054;-79
2023/01/18 09:01:18;;;;;;;26.42;16.88;;;;;;;0.38;75.57;97684.63;4992795;28;20057;-78
2023/01/18 09:03:47;;;;;;;32.65;16.98;;;;;;;0.38;74.95;97685.47;5010118;28;20066;-79
2023/01/18 09:06:15;;;;;;;30.83;17.52;;;;;;;0.40;75.06;97690.56;4992765;28;20066;-79
2023/01/18 09:08:42;;;;;;;27.33;17.33;;;;;;;0.42;75.20;97695.66;5010087;28;20058;-80
2023/01/18 09:11:09;;;;;;;27.75;17.40;;;;;;;0.40;75.35;97700.09;5010360;28;20072;-79
2023/01/18 09:13:37;;;;;;;27.60;16.98;;;;;;;0.41;75.24;97702.59;5010137;28;20050;-78
2023/01/18 09:16:24;;;;;;;29.52;17.50;;;;;;;0.41;74.69;97704.34;5009756;28;20422;-78
2023/01/18 09:18:51;;;;;;;33.33;17.70;;;;;;;0.38;74.56;97711.34;5010215;28;20567;-78
2023/01/18 09:21:17;;;;;;;34.08;20.17;;;;;;;0.36;74.05;97714.91;5010252;28;20065;-79
2023/01/18 09:23:47;;;;;;;26.02;17.88;;;;;;;0.34;74.76;97717.56;5010409;28;20112;-79
2023/01/18 09:26:19;;;;;;;27.70;17.50;;;;;;;0.33;74.73;97717.66;5010076;28;20065;-79
2023/01/18 09:28:51;;;;;;;31.08;18.08;;;;;;;0.31;75.16;97733.28;5009993;28;20506;-78
2023/01/18 09:31:18;;;;;;;31.25;17.70;;;;;;;0.33;75.13;97731.44;5010028;28;20384;-79
2023/01/18 09:33:45;;;;;;;29.42;17.35;;;;;;;0.34;75.37;97733.09;5009954;28;20053;-78
2023/01/18 09:36:22;;;;;;;28.30;17.23;;;;;;;0.34;75.18;97735.69;5013513;28;20495;-79
2023/01/18 09:38:49;;;;;;;29.10;17.73;;;;;;;0.34;75.42;97737.47;5013391;28;20158;-79
2023/01/18 09:41:43;;;;;;;32.17;18.75;;;;;;;0.34;74.52;97743.44;5013723;28;20651;-79
2023/01/18 09:44:31;;;;;;;26.52;17.65;;;;;;;0.36;73.54;97751.16;5013222;28;20061;-79
2023/01/18 09:47:04;;;;;;;27.50;17.25;;;;;;;0.38;74.80;97747.56;5013486;28;20116;-79
2023/01/18 09:49:53;;;;;;;31.38;18.50;;;;;;;0.37;74.38;97752.81;5013556;28;20061;-79
2023/01/18 09:52:29;;;;;;;29.15;17.98;;;;;;;0.39;74.57;97753.59;5012053;28;20553;-79
2023/01/18 09:55:12;;;;;;;27.77;17.95;;;;;;;0.38;73.78;97759.69;5013306;28;20073;-78
2023/01/18 09:57:51;;;;;;;25.50;16.67;;;;;;;0.43;75.68;97765.47;5013433;28;20054;-78
2023/01/18 10:00:25;;;;;;;32.60;17.05;;;;;;;0.42;74.16;97768.13;5013227;28;20487;-78
2023/01/18 10:02:59;;;;;;;32.45;17.33;;;;;;;0.45;75.36;97762.81;5012870;28;20062;-79
2023/01/18 10:05:31;;;;;;;32.97;16.45;;;;;;;0.48;75.83;97766.09;5011806;28;20133;-79
2023/01/18 10:08:24;;;;;;;27.55;17.10;;;;;;;0.47;73.15;97766.16;5011644;28;20104;-78
2023/01/18 10:11:05;;;;;;;29.85;16.77;;;;;;;0.51;74.05;97773.72;5011886;28;20057;-79
2023/01/18 10:13:49;;;;;;;29.38;17.67;;;;;;;0.55;74.41;97774.41;5012912;28;20049;-79
2023/01/18 10:16:17;;;;;;;33.70;17.52;;;;;;;0.60;75.70;97763.84;5012886;28;20096;-78
2023/01/18 10:18:47;;;;;;;29.95;17.50;;;;;;;0.61;75.42;97766.34;5013052;28;20570;-79
2023/01/18 10:21:22;;;;;;;32.03;17.67;;;;;;;0.62;74.68;97770.63;5012774;28;20156;-79
2023/01/18 10:24:26;;;;;;;28.65;17.13;;;;;;;0.67;74.50;97774.72;4995226;28;20065;-79
2023/01/18 10:27:09;;;;;;;29.17;17.38;;;;;;;0.71;75.44;97779.66;4985862;28;20338;-79
2023/01/18 10:29:45;;;;;;;;;;;;;;;0.76;73.00;97769.09;5013255;28;20069;-79
2023/01/18 10:32:17;;;;;;;26.20;15.48;;;;;;;0.81;74.98;97769.72;5012526;28;19925;-79
2023/01/18 10:34:48;;;;;;;21.48;12.75;;;;;;;0.82;74.41;97776.56;5012557;28;20535;-79
2023/01/18 10:37:34;;;;;;;28.65;15.82;;;;;;;0.84;75.48;97782.50;5012558;28;20053;-79
2023/01/18 10:40:08;;;;;;;26.90;16.38;;;;;;;0.86;75.38;97772.91;5012459;28;20053;-78
2023/01/18 10:42:50;;;;;;;28.25;16.25;;;;;;;0.89;74.68;97779.69;5012132;28;20065;-79
2023/01/18 10:45:27;;;;;;;30.15;18.05;;;;;;;0.94;74.51;97785.50;5012179;28;20065;-79
2023/01/18 10:47:55;;;;;;;28.67;16.95;;;;;;;0.99;75.34;97782.66;5011998;28;20137;-79
2023/01/18 10:50:36;;;;;;;27.98;17.60;;;;;;;1.02;74.38;97783.34;5012203;28;20505;-78
2023/01/18 10:53:25;;;;;;;28.75;16.58;;;;;;;1.08;74.26;97786.56;5012054;28;20490;-79
2023/01/18 10:56:16;;;;;;;25.88;15.98;;;;;;;1.16;73.08;97784.44;4994642;28;20046;-79
2023/01/18 10:58:51;;;;;;;27.45;16.67;;;;;;;1.25;76.03;97790.88;5004724;28;20525;-79
2023/01/18 11:01:24;;;;;;;27.88;16.55;;;;;;;1.29;75.59;97788.06;5011991;28;20462;-79
2023/01/18 11:03:54;;;;;;;28.38;15.93;;;;;;;1.37;76.55;97789.41;4994622;28;20069;-79
2023/01/18 11:06:22;;;;;;;27.40;17.05;;;;;;;1.43;76.10;97795.13;4994239;28;20050;-79
2023/01/18 11:08:49;;;;;;;25.65;16.25;;;;;;;1.51;76.82;97788.72;5011945;28;20046;-79
2023/01/18 11:12:32;;;;;;;26.88;17.75;;;;;;;1.58;74.97;97787.47;5012027;28;20069;-79
2023/01/18 11:14:38;;;;;;;24.92;16.58;;;;;;;1.67;72.78;97789.59;5011771;28;20100;-78
2023/01/18 11:17:10;;;;;;;;;;;;;;;1.81;71.40;97785.44;5009425;28;20062;-78
2023/01/18 11:19:37;;;;;;;25.42;15.70;;;;;;;1.95;77.17;97785.53;4994266;28;19960;-79
2023/01/18 11:22:12;;;;;;;27.00;17.00;;;;;;;2.06;76.19;97790.13;5010331;28;20430;-79
2023/01/18 11:24:39;;;;;;;27.40;16.25;;;;;;;2.26;78.85;97793.41;5011732;28;20054;-79
2023/01/18 11:27:17;;;;;;;26.50;18.10;;;;;;;2.43;77.00;97789.88;5011452;28;20088;-79
2023/01/18 11:29:45;;;;;;;28.10;16.90;;;;;;;2.71;80.09;97788.34;5011676;28;20124;-78
2023/01/18 11:32:32;;;;;;;30.83;19.08;;;;;;;3.07;77.45;97785.50;5011570;28;20065;-79
2023/01/18 11:34:59;;;;;;;25.58;17.75;;;;;;;3.53;83.46;97784.53;5011518;28;20662;-79
2023/01/18 11:37:44;;;;;;;25.55;16.35;;;;;;;4.06;79.60;97776.13;5011436;28;20134;-79
2023/01/18 11:40:21;;;;;;;25.92;16.58;;;;;;;4.67;80.79;97780.13;5011342;28;20065;-78
2023/01/18 11:42:50;;;;;;;23.50;15.90;;;;;;;5.27;82.32;97784.97;5011190;28;20068;-77
2023/01/18 11:45:28;;;;;;;20.25;14.57;;;;;;;5.85;78.94;97781.94;5011249;28;20057;-78
2023/01/18 11:48:02;;;;;;;18.90;13.38;;;;;;;6.44;79.55;97784.84;5011328;28;20149;-77
2023/01/18 11:50:51;;;;;;;20.60;14.15;;;;;;;7.03;74.20;97783.22;5011314;28;20052;-77
2023/01/18 11:53:23;;;;;;;20.25;13.43;;;;;;;7.59;77.89;97786.03;5011244;28;20056;-77
2023/01/18 11:56:04;;;;;;;18.30;12.45;;;;;;;8.04;74.26;97778.19;5011074;28;20570;-76
2023/01/18 11:58:33;;;;;;;19.50;12.20;;;;;;;8.52;74.79;97780.63;5009572;28;20054;-77
2023/01/18 12:01:11;;;;;;;17.67;11.65;;;;;;;8.86;67.79;97783.97;5010870;28;20058;-77
2023/01/18 12:04:06;;;;;;;19.65;12.43;;;;;;;9.19;64.68;97777.88;5010692;28;20148;-79
2023/01/18 12:07:02;;;;;;;18.48;11.40;;;;;;;9.49;64.28;97778.84;5010724;28;20392;-77
2023/01/18 12:09:34;;;;;;;16.70;11.80;;;;;;;9.78;64.00;97786.06;5011290;28;20061;-77
2023/01/18 12:12:30;;;;;;;13.88;11.05;;;;;;;9.98;61.43;97784.34;5010847;28;20181;-76
2023/01/18 12:15:20;;;;;;;18.05;11.65;;;;;;;10.18;62.00;97779.16;5010527;28;20499;-77
2023/01/18 12:18:22;;;;;;;14.55;11.13;;;;;;;10.37;57.65;97777.53;5011045;28;20054;-77
2023/01/18 12:21:00;;;;;;;15.38;11.27;;;;;;;10.56;57.98;97784.66;4982616;28;20066;-79